createdAt,value
2019-06-10T00:01:08.717Z,35.65
2019-06-10T00:03:35.044Z,36.98
2019-06-10T00:06:03.719Z,36.02
2019-06-10T00:08:30.809Z,35.59
2019-06-10T00:10:58.219Z,35.47
2019-06-10T00:13:24.459Z,35.40
2019-06-10T00:15:51.515Z,35.15
2019-06-10T00:18:35.426Z,35.86
2019-06-10T00:20:46.262Z,35.98
2019-06-10T00:23:12.690Z,36.35
2019-06-10T00:25:41.445Z,35.74
2019-06-10T00:28:07.412Z,35.97
2019-06-10T00:30:34.869Z,35.80
2019-06-10T00:33:03.148Z,35.59
2019-06-10T00:35:31.425Z,36.34
2019-06-10T00:37:57.209Z,36.67
2019-06-10T00:40:23.366Z,36.86
2019-06-10T00:42:50.759Z,37.32
2019-06-10T00:45:18.119Z,36.63
2019-06-10T00:47:44.586Z,36.82
2019-06-10T00:50:14.805Z,37.02
2019-06-10T00:52:44.452Z,37.12
2019-06-10T00:55:12.054Z,36.32
2019-06-10T00:57:37.266Z,37.70
2019-06-10T01:00:14.524Z,37.84
2019-06-10T01:02:34.016Z,37.22
2019-06-10T01:05:00.794Z,37.29
2019-06-10T01:07:27.304Z,37.17
2019-06-10T01:09:53.447Z,37.09
2019-06-10T01:12:21.134Z,36.98
2019-06-10T01:14:47.624Z,36.06
2019-06-10T01:17:15.397Z,37.03
2019-06-10T01:19:41.902Z,37.20
2019-06-10T01:22:10.667Z,36.52
2019-06-10T01:24:36.146Z,36.49
2019-06-10T01:27:02.329Z,36.41
2019-06-10T01:29:28.503Z,36.91
2019-06-10T01:31:54.677Z,36.93
2019-06-10T01:34:21.760Z,36.93
2019-06-10T01:36:48.134Z,37.00
2019-06-10T01:39:15.152Z,37.04
2019-06-10T01:41:42.408Z,36.67
2019-06-10T01:44:11.099Z,37.86
2019-06-10T01:46:36.648Z,37.80
2019-06-10T01:49:02.829Z,37.39
2019-06-10T01:51:31.540Z,37.85
2019-06-10T01:53:57.058Z,37.59
2019-06-10T01:56:23.247Z,36.99
2019-06-10T01:58:51.316Z,37.28
2019-06-10T02:01:23.135Z,37.10
2019-06-10T02:03:47.494Z,38.33
2019-06-10T02:06:16.533Z,37.97
2019-06-10T02:08:41.918Z,37.32
2019-06-10T02:11:09.127Z,38.28
2019-06-10T02:13:36.185Z,37.33
2019-06-10T02:16:03.085Z,38.18
2019-06-10T02:18:31.946Z,37.90
2019-06-10T02:20:57.895Z,38.37
2019-06-10T02:23:24.539Z,37.35
2019-06-10T02:25:51.308Z,37.67
2019-06-10T02:28:17.615Z,38.81
2019-06-10T02:30:50.892Z,38.52
2019-06-10T02:33:16.765Z,39.12
2019-06-10T02:35:48.413Z,38.32
2019-06-10T02:38:08.112Z,39.18
2019-06-10T02:40:36.609Z,37.78
2019-06-10T02:43:04.709Z,39.17
2019-06-10T02:45:36.492Z,38.51
2019-06-10T02:47:58.971Z,38.33
2019-06-10T02:50:33.546Z,37.94
2019-06-10T02:52:59.537Z,37.17
2019-06-10T02:55:30.648Z,37.08
2019-06-10T02:57:53.800Z,37.79
2019-06-10T03:00:31.748Z,36.10
2019-06-10T03:02:48.054Z,34.62
2019-06-10T03:05:16.909Z,33.39
2019-06-10T03:07:44.432Z,33.57
2019-06-10T03:10:13.488Z,33.06
2019-06-10T03:12:38.554Z,31.12
2019-06-10T03:15:05.325Z,29.87
2019-06-10T03:17:32.256Z,28.59
2019-06-10T03:19:58.688Z,28.26
2019-06-10T03:22:25.897Z,30.42
2019-06-10T03:24:52.452Z,32.51
2019-06-10T03:27:18.807Z,34.06
2019-06-10T03:29:44.981Z,34.08
2019-06-10T03:32:14.521Z,33.39
2019-06-10T03:34:45.970Z,32.35
2019-06-10T03:37:07.303Z,32.66
2019-06-10T03:39:33.487Z,32.88
2019-06-10T03:42:02.126Z,32.64
2019-06-10T03:44:28.451Z,32.10
2019-06-10T03:46:54.822Z,31.98
2019-06-10T03:49:21.883Z,31.50
2019-06-10T03:51:49.059Z,31.30
2019-06-10T03:54:15.261Z,30.51
2019-06-10T03:56:42.983Z,29.15
2019-06-10T03:59:12.060Z,27.94
2019-06-10T04:01:37.739Z,29.03
2019-06-10T04:04:03.938Z,28.42
2019-06-10T04:06:33.358Z,28.27
2019-06-10T04:08:58.282Z,28.50
2019-06-10T04:11:25.913Z,28.80
2019-06-10T04:13:53.479Z,29.48
2019-06-10T04:16:22.276Z,30.50
2019-06-10T04:18:48.041Z,29.80
2019-06-10T04:21:14.217Z,28.23
2019-06-10T04:23:42.352Z,23.95
2019-06-10T04:26:08.491Z,22.66
2019-06-10T04:28:34.657Z,22.38
2019-06-10T04:31:02.696Z,25.51
2019-06-10T04:33:28.899Z,24.25
2019-06-10T04:35:55.071Z,20.86
2019-06-10T04:38:23.365Z,19.99
2019-06-10T04:40:49.326Z,20.20
2019-06-10T04:43:15.499Z,19.21
2019-06-10T04:45:42.930Z,19.22
2019-06-10T04:48:09.368Z,18.21
2019-06-10T04:50:42.511Z,19.10
2019-06-10T04:53:03.681Z,21.04
2019-06-10T04:55:29.828Z,21.04
2019-06-10T04:57:56.112Z,24.12
2019-06-10T05:00:24.078Z,25.15
2019-06-10T05:02:52.218Z,25.42
2019-06-10T05:05:19.013Z,26.48
2019-06-10T05:07:45.350Z,25.36
2019-06-10T05:10:12.399Z,24.69
2019-06-10T05:12:38.752Z,21.78
2019-06-10T05:15:05.972Z,22.18
2019-06-10T05:17:34.343Z,23.27
2019-06-10T05:20:02.542Z,25.41
2019-06-10T05:22:28.531Z,25.11
2019-06-10T05:24:55.670Z,25.52
2019-06-10T05:27:22.791Z,25.77
2019-06-10T05:29:50.048Z,28.03
2019-06-10T05:32:16.221Z,27.81
2019-06-10T05:34:43.661Z,25.25
2019-06-10T05:37:12.021Z,25.26
2019-06-10T05:39:38.153Z,25.94
2019-06-10T05:42:04.306Z,24.64
2019-06-10T05:44:33.130Z,25.37
2019-06-10T05:46:58.895Z,26.47
2019-06-10T05:49:26.234Z,26.29
2019-06-10T05:51:53.174Z,26.78
2019-06-10T05:54:19.627Z,24.88
2019-06-10T05:56:45.802Z,23.24
2019-06-10T05:59:12.153Z,25.78
2019-06-10T06:01:38.721Z,25.01
2019-06-10T06:04:05.121Z,23.21
2019-06-10T06:06:33.506Z,25.31
2019-06-10T06:08:59.495Z,27.95
2019-06-10T06:11:25.651Z,27.37
2019-06-10T06:13:52.339Z,27.83
2019-06-10T06:16:18.674Z,29.07
2019-06-10T06:18:44.843Z,29.07
2019-06-10T06:21:22.662Z,29.38
2019-06-10T06:23:39.103Z,29.68
2019-06-10T06:26:05.310Z,29.19
2019-06-10T06:28:33.959Z,29.47
2019-06-10T06:30:59.606Z,28.00
2019-06-10T06:33:25.760Z,26.28
2019-06-10T06:35:52.498Z,25.97
2019-06-10T06:38:18.821Z,27.36
2019-06-10T06:40:44.981Z,28.12
2019-06-10T06:43:12.082Z,26.91
2019-06-10T06:45:38.957Z,23.43
2019-06-10T06:48:05.441Z,21.18
2019-06-10T06:50:34.363Z,19.70
2019-06-10T06:53:25.817Z,21.36
2019-06-10T06:55:28.643Z,20.63
2019-06-10T06:57:55.088Z,20.58
2019-06-10T07:00:45.072Z,21.80
2019-06-10T07:02:53.073Z,20.62
2019-06-10T07:05:19.286Z,20.62
2019-06-10T07:07:46.260Z,20.43
2019-06-10T07:10:13.633Z,21.07
2019-06-10T07:12:43.952Z,22.93
2019-06-10T07:15:12.192Z,24.34
2019-06-10T07:17:39.527Z,22.55
2019-06-10T07:20:07.330Z,23.39
2019-06-10T07:22:36.207Z,26.69
2019-06-10T07:25:06.331Z,25.26
2019-06-10T07:27:30.313Z,25.06
2019-06-10T07:29:56.486Z,24.73
2019-06-10T07:32:22.886Z,22.48
2019-06-10T07:34:49.282Z,23.54
2019-06-10T07:37:15.437Z,26.68
2019-06-10T07:39:44.000Z,28.64
2019-06-10T07:42:09.820Z,28.16
2019-06-10T07:44:37.573Z,29.59
2019-06-10T07:47:04.051Z,28.48
2019-06-10T07:49:32.561Z,26.61
2019-06-10T07:52:12.030Z,22.90
2019-06-10T07:54:26.389Z,24.72
2019-06-10T07:56:53.742Z,24.16
2019-06-10T07:59:20.204Z,23.10
2019-06-10T08:01:51.398Z,24.22
2019-06-10T08:04:14.456Z,22.99
2019-06-10T08:06:44.136Z,25.13
2019-06-10T08:09:08.715Z,30.21
2019-06-10T08:11:35.188Z,33.27
2019-06-10T08:14:04.541Z,30.69
2019-06-10T08:16:29.539Z,30.24
2019-06-10T08:19:24.625Z,28.31
2019-06-10T08:21:23.851Z,28.49
2019-06-10T08:23:54.199Z,29.91
2019-06-10T08:26:22.677Z,28.41
2019-06-10T08:28:48.429Z,27.18
2019-06-10T08:31:14.567Z,27.26
2019-06-10T08:33:44.346Z,27.12
2019-06-10T08:36:08.829Z,26.73
2019-06-10T08:38:36.251Z,27.64
2019-06-10T08:41:03.313Z,27.13
2019-06-10T08:43:29.685Z,25.84
2019-06-10T08:45:56.168Z,26.43
2019-06-10T08:48:22.911Z,27.14
2019-06-10T08:50:50.206Z,29.64
2019-06-10T08:53:18.245Z,30.38
2019-06-10T08:55:46.633Z,31.20
2019-06-10T08:58:13.014Z,31.26
2019-06-10T09:00:40.442Z,31.66
2019-06-10T09:03:07.278Z,31.30
2019-06-10T09:05:33.455Z,31.09
2019-06-10T09:07:59.630Z,30.28
2019-06-10T09:10:25.827Z,29.45
2019-06-10T09:12:54.575Z,26.93
2019-06-10T09:15:20.252Z,25.68
2019-06-10T09:17:49.318Z,26.36
2019-06-10T09:20:15.552Z,26.90
2019-06-10T09:22:45.355Z,25.92
2019-06-10T09:25:12.380Z,25.63
2019-06-10T09:27:40.019Z,27.45
2019-06-10T09:30:09.013Z,26.18
2019-06-10T09:32:35.213Z,23.48
2019-06-10T09:35:03.440Z,23.99
2019-06-10T09:37:29.488Z,26.92
2019-06-10T09:39:59.477Z,26.80
2019-06-10T09:42:23.983Z,27.11
2019-06-10T09:44:55.316Z,26.59
2019-06-10T09:47:22.637Z,27.22
2019-06-10T09:49:51.431Z,28.17
2019-06-10T09:52:17.987Z,27.85
2019-06-10T09:54:47.944Z,26.80
2019-06-10T09:57:12.762Z,26.05
2019-06-10T09:59:39.023Z,24.97
2019-06-10T10:02:07.146Z,26.59
2019-06-10T10:04:37.507Z,27.46
2019-06-10T10:07:03.918Z,25.23
2019-06-10T10:09:33.806Z,25.37
2019-06-10T10:11:58.816Z,23.56
2019-06-10T10:14:24.968Z,23.17
2019-06-10T10:16:58.666Z,24.05
2019-06-10T10:19:19.340Z,24.06
2019-06-10T10:21:49.456Z,25.33
2019-06-10T10:24:15.115Z,25.33
2019-06-10T10:26:43.348Z,25.32
2019-06-10T10:29:09.713Z,28.04
2019-06-10T10:31:35.966Z,28.04
2019-06-10T10:34:02.745Z,27.17
2019-06-10T10:36:29.032Z,27.78
2019-06-10T10:38:55.233Z,27.88
2019-06-10T10:41:23.444Z,27.77
2019-06-10T10:43:52.381Z,29.01
2019-06-10T10:46:17.599Z,28.45
2019-06-10T10:48:44.987Z,29.59
2019-06-10T10:51:13.170Z,29.68
2019-06-10T10:53:39.431Z,29.57
2019-06-10T10:56:05.594Z,29.30
2019-06-10T10:58:33.074Z,27.79
2019-06-10T11:00:59.572Z,26.60
2019-06-10T11:03:25.742Z,29.12
2019-06-10T11:05:57.839Z,31.32
2019-06-10T11:08:22.615Z,31.54
2019-06-10T11:10:49.880Z,36.51
2019-06-10T11:13:17.663Z,37.49
2019-06-10T11:15:45.664Z,31.09
2019-06-10T11:18:12.675Z,33.91
2019-06-10T11:20:39.213Z,33.76
2019-06-10T11:23:05.518Z,33.43
2019-06-10T11:25:33.205Z,31.72
2019-06-10T11:27:59.692Z,31.43
2019-06-10T11:30:28.606Z,28.94
2019-06-10T11:32:57.235Z,27.12
2019-06-10T11:35:22.975Z,29.00
2019-06-10T11:37:49.326Z,29.00
2019-06-10T11:40:15.580Z,25.93
2019-06-10T11:42:43.547Z,23.96
2019-06-10T11:45:11.631Z,23.96
2019-06-10T11:47:38.129Z,23.51
2019-06-10T11:50:06.627Z,22.14
2019-06-10T11:52:33.637Z,21.94
2019-06-10T11:55:11.655Z,25.26
2019-06-10T11:57:27.999Z,25.01
2019-06-10T11:59:55.971Z,25.13
2019-06-10T12:02:22.851Z,26.27
2019-06-10T12:04:50.456Z,25.83
2019-06-10T12:07:17.393Z,25.83
2019-06-10T12:09:43.559Z,26.80
2019-06-10T12:12:09.724Z,34.38
2019-06-10T12:14:35.941Z,41.87
2019-06-10T12:17:35.112Z,38.80
2019-06-10T12:19:33.513Z,38.54
2019-06-10T12:22:03.369Z,38.01
2019-06-10T12:24:26.422Z,39.07
2019-06-10T12:26:55.249Z,38.50
2019-06-10T12:29:22.562Z,36.91
2019-06-10T12:31:48.786Z,33.49
2019-06-10T12:34:14.964Z,29.09
2019-06-10T12:36:41.148Z,29.77
2019-06-10T12:39:10.921Z,28.32
2019-06-10T12:41:36.594Z,26.89
2019-06-10T12:44:24.373Z,23.74
2019-06-10T12:46:53.975Z,23.74
2019-06-10T12:49:18.736Z,21.52
2019-06-10T12:51:44.931Z,21.66
2019-06-10T12:54:13.148Z,22.54
2019-06-10T12:56:39.195Z,21.04
2019-06-10T12:59:09.606Z,21.12
2019-06-10T13:01:33.457Z,20.49
2019-06-10T13:04:02.300Z,20.61
2019-06-10T13:06:29.223Z,19.98
2019-06-10T13:08:56.331Z,19.49
2019-06-10T13:11:23.865Z,19.69
2019-06-10T13:13:50.067Z,20.59
2019-06-10T13:16:16.248Z,23.83
2019-06-10T13:18:42.379Z,26.48
2019-06-10T13:21:13.578Z,28.45
2019-06-10T13:23:36.671Z,29.55
2019-06-10T13:26:10.859Z,26.49
2019-06-10T13:28:32.937Z,25.94
2019-06-10T13:30:59.217Z,25.50
2019-06-10T13:33:25.432Z,26.34
2019-06-10T13:35:53.744Z,31.61
2019-06-10T13:38:19.712Z,33.67
2019-06-10T13:40:45.885Z,31.75
2019-06-10T13:43:13.031Z,32.75
2019-06-10T13:45:39.552Z,31.69
2019-06-10T13:48:08.444Z,31.40
2019-06-10T13:50:33.825Z,30.72
2019-06-10T13:53:01.136Z,30.47
2019-06-10T13:55:28.057Z,30.97
2019-06-10T13:57:54.264Z,29.99
2019-06-10T14:00:24.156Z,29.09
2019-06-10T14:02:52.263Z,31.39
2019-06-10T14:05:18.654Z,30.54
2019-06-10T14:07:44.951Z,27.88
2019-06-10T14:10:17.848Z,27.25
2019-06-10T14:12:39.651Z,30.52
2019-06-10T14:15:09.162Z,28.03
2019-06-10T14:17:34.667Z,31.09
2019-06-10T14:20:01.776Z,30.81
2019-06-10T14:22:28.137Z,31.55
2019-06-10T14:24:54.296Z,29.98
2019-06-10T14:27:21.585Z,30.16
2019-06-10T14:29:48.552Z,32.76
2019-06-10T14:32:15.820Z,33.39
2019-06-10T14:34:42.158Z,34.45
2019-06-10T14:37:09.765Z,33.98
2019-06-10T14:39:36.531Z,33.04
2019-06-10T14:42:03.823Z,34.93
2019-06-10T14:44:32.607Z,36.97
2019-06-10T14:46:59.772Z,38.88
2019-06-10T14:49:26.294Z,41.09
2019-06-10T14:51:53.818Z,42.67
2019-06-10T14:54:22.639Z,41.58
2019-06-10T14:56:53.606Z,40.97
2019-06-10T14:59:18.103Z,40.21
2019-06-10T15:01:44.558Z,40.56
2019-06-10T15:04:12.579Z,37.47
2019-06-10T15:06:38.821Z,35.97
2019-06-10T15:09:07.438Z,35.53
2019-06-10T15:11:33.858Z,34.92
2019-06-10T15:14:02.371Z,35.52
2019-06-10T15:16:28.159Z,40.15
2019-06-10T15:19:02.650Z,40.22
2019-06-10T15:21:23.219Z,42.62
2019-06-10T15:23:52.183Z,46.49
2019-06-10T15:26:17.814Z,45.80
2019-06-10T15:28:44.086Z,47.61
2019-06-10T15:31:12.965Z,47.99
2019-06-10T15:33:38.372Z,47.08
2019-06-10T15:36:04.532Z,45.17
2019-06-10T15:38:32.788Z,42.76
2019-06-10T15:40:58.981Z,42.24
2019-06-10T15:43:25.146Z,41.19
2019-06-10T15:45:52.823Z,43.21
2019-06-10T15:48:21.906Z,42.98
2019-06-10T15:50:47.577Z,44.38
2019-06-10T15:53:17.247Z,44.64
2019-06-10T15:56:08.881Z,43.01
2019-06-10T15:58:09.920Z,41.83
2019-06-10T16:00:36.077Z,40.21
2019-06-10T16:03:02.576Z,38.42
2019-06-10T16:05:29.136Z,37.99
2019-06-10T16:07:55.307Z,37.77
2019-06-10T16:10:26.587Z,37.84
2019-06-10T16:12:49.574Z,37.02
2019-06-10T16:15:16.616Z,36.61
2019-06-10T16:17:44.034Z,38.21
2019-06-10T16:20:12.660Z,36.52
2019-06-10T16:22:38.473Z,38.93
2019-06-10T16:25:05.671Z,37.93
2019-06-10T16:27:46.279Z,38.39
2019-06-10T16:30:02.590Z,39.26
2019-06-10T16:32:28.024Z,40.80
2019-06-10T16:34:54.161Z,40.34
2019-06-10T16:37:23.431Z,40.06
2019-06-10T16:39:48.597Z,39.69
2019-06-10T16:42:15.493Z,39.39
2019-06-10T16:44:42.367Z,39.67
2019-06-10T16:47:08.809Z,39.14
2019-06-10T16:49:34.958Z,40.18
2019-06-10T16:52:02.901Z,40.23
2019-06-10T16:54:29.957Z,39.54
2019-06-10T16:56:56.390Z,44.48
2019-06-10T16:59:24.612Z,43.07
2019-06-10T17:01:53.069Z,44.02
2019-06-10T17:04:19.282Z,46.99
2019-06-10T17:06:45.582Z,45.23
2019-06-10T17:09:13.458Z,44.65
2019-06-10T17:11:42.362Z,44.16
2019-06-10T17:14:07.910Z,42.21
2019-06-10T17:16:34.229Z,41.62
2019-06-10T17:19:02.436Z,42.69
2019-06-10T17:21:31.671Z,44.31
2019-06-10T17:23:56.578Z,44.97
2019-06-10T17:26:29.407Z,46.89
2019-06-10T17:28:52.147Z,45.18
2019-06-10T17:31:19.714Z,43.50
2019-06-10T17:33:46.661Z,44.66
2019-06-10T17:36:12.844Z,42.35
2019-06-10T17:38:39.044Z,40.82
2019-06-10T17:41:05.389Z,42.64
2019-06-10T17:43:34.045Z,44.74
2019-06-10T17:45:59.701Z,45.20
2019-06-10T17:48:27.364Z,45.10
2019-06-10T17:50:54.146Z,46.88
2019-06-10T17:53:20.361Z,46.87
2019-06-10T17:55:46.615Z,44.92
2019-06-10T17:58:13.196Z,44.12
2019-06-10T18:00:42.056Z,44.36
2019-06-10T18:03:07.582Z,41.73
2019-06-10T18:05:33.754Z,42.80
2019-06-10T18:08:02.179Z,42.01
2019-06-10T18:10:28.013Z,42.14
2019-06-10T18:12:54.268Z,42.81
2019-06-10T18:15:22.197Z,41.06
2019-06-10T18:17:48.562Z,41.70
2019-06-10T18:20:16.823Z,41.20
2019-06-10T18:22:43.048Z,41.56
2019-06-10T18:25:12.172Z,43.01
2019-06-10T18:27:37.968Z,45.72
2019-06-10T18:30:10.884Z,45.44
2019-06-10T18:32:36.989Z,42.35
2019-06-10T18:35:02.965Z,44.59
2019-06-10T18:37:30.404Z,45.91
2019-06-10T18:39:57.166Z,45.84
2019-06-10T18:42:23.648Z,45.79
2019-06-10T18:44:52.159Z,43.50
2019-06-10T18:47:18.065Z,42.56
2019-06-10T18:49:44.219Z,42.89
2019-06-10T18:52:12.529Z,42.33
2019-06-10T18:54:38.489Z,43.36
2019-06-10T18:57:04.647Z,47.74
2019-06-10T18:59:33.122Z,44.00
2019-06-10T19:01:58.961Z,42.64
2019-06-10T19:04:25.162Z,43.13
2019-06-10T19:06:52.762Z,42.78
2019-06-10T19:09:19.308Z,42.71
2019-06-10T19:11:45.468Z,43.32
2019-06-10T19:14:12.788Z,44.99
2019-06-10T19:16:40.158Z,43.48
2019-06-10T19:19:06.521Z,42.15
2019-06-10T19:21:32.743Z,43.43
2019-06-10T19:23:58.888Z,43.00
2019-06-10T19:26:25.047Z,43.52
2019-06-10T19:28:53.415Z,44.45
2019-06-10T19:31:19.339Z,45.92
2019-06-10T19:33:45.646Z,48.41
2019-06-10T19:36:12.662Z,46.93
2019-06-10T19:38:39.899Z,47.37
2019-06-10T19:41:06.308Z,46.81
2019-06-10T19:43:34.578Z,49.54
2019-06-10T19:46:04.294Z,50.73
2019-06-10T19:48:28.714Z,50.79
2019-06-10T19:50:54.910Z,47.61
2019-06-10T19:53:22.174Z,45.39
2019-06-10T19:55:48.566Z,44.38
2019-06-10T19:58:14.761Z,45.75
2019-06-10T20:00:41.607Z,46.10
2019-06-10T20:03:08.979Z,43.96
2019-06-10T20:05:36.203Z,44.88
2019-06-10T20:08:03.190Z,46.52
2019-06-10T20:10:29.611Z,46.80
2019-06-10T20:12:55.824Z,44.41
2019-06-10T20:15:23.804Z,46.23
2019-06-10T20:17:52.335Z,45.00
2019-06-10T20:20:18.176Z,44.24
2019-06-10T20:22:46.649Z,45.12
2019-06-10T20:25:12.599Z,44.38
2019-06-10T20:27:39.713Z,42.69
2019-06-10T20:30:23.531Z,42.08
2019-06-10T20:32:37.180Z,42.00
2019-06-10T20:35:06.649Z,42.80
2019-06-10T20:37:32.924Z,42.31
2019-06-10T20:39:59.077Z,42.30
2019-06-10T20:42:25.284Z,41.87
2019-06-10T20:44:51.512Z,41.41
2019-06-10T20:47:17.664Z,41.14
2019-06-10T20:49:45.862Z,40.42
2019-06-10T20:52:14.760Z,42.09
2019-06-10T20:54:42.955Z,44.71
2019-06-10T20:57:08.373Z,46.29
2019-06-10T20:59:34.550Z,47.11
2019-06-10T21:02:03.189Z,47.61
2019-06-10T21:04:29.514Z,48.85
2019-06-10T21:06:55.888Z,47.26
2019-06-10T21:09:24.164Z,46.42
2019-06-10T21:11:51.917Z,47.06
2019-06-10T21:14:18.414Z,45.91
2019-06-10T21:16:44.571Z,45.60
2019-06-10T21:19:10.758Z,46.70
2019-06-10T21:21:36.937Z,45.67
2019-06-10T21:24:03.111Z,46.11
2019-06-10T21:26:29.300Z,49.36
2019-06-10T21:28:55.499Z,47.02
2019-06-10T21:31:21.644Z,43.41
2019-06-10T21:33:49.527Z,41.41
2019-06-10T21:36:15.909Z,40.65
2019-06-10T21:38:44.921Z,41.46
2019-06-10T21:41:12.285Z,40.63
2019-06-10T21:43:41.288Z,40.37
2019-06-10T21:46:06.360Z,42.06
2019-06-10T21:48:32.555Z,43.43
2019-06-10T21:50:58.737Z,42.33
2019-06-10T21:53:24.920Z,43.90
2019-06-10T21:55:53.545Z,42.85
2019-06-10T21:58:19.193Z,43.01
2019-06-10T22:01:05.134Z,40.71
2019-06-10T22:03:17.429Z,41.40
2019-06-10T22:05:44.286Z,42.08
2019-06-10T22:08:12.519Z,41.18
2019-06-10T22:10:39.051Z,39.77
2019-06-10T22:13:05.203Z,41.15
2019-06-10T22:15:33.360Z,39.75
2019-06-10T22:18:01.997Z,39.51
2019-06-10T22:20:27.613Z,39.13
2019-06-10T22:22:56.270Z,40.03
2019-06-10T22:25:22.382Z,40.28
2019-06-10T22:27:49.951Z,38.79
2019-06-10T22:30:16.585Z,38.41
2019-06-10T22:32:43.051Z,37.67
2019-06-10T22:35:09.330Z,37.10
2019-06-10T22:37:35.488Z,37.12
2019-06-10T22:40:03.276Z,37.23
2019-06-10T22:42:29.837Z,38.41
2019-06-10T22:44:57.964Z,38.55
2019-06-10T22:47:24.141Z,38.75
2019-06-10T22:49:50.404Z,38.29
2019-06-10T22:52:16.560Z,38.05
2019-06-10T22:54:43.122Z,38.01
2019-06-10T22:57:09.538Z,37.65
2019-06-10T22:59:35.688Z,38.87
2019-06-10T23:02:03.079Z,38.66
2019-06-10T23:04:29.439Z,38.37
2019-06-10T23:06:56.688Z,38.33
2019-06-10T23:09:23.788Z,38.15
2019-06-10T23:11:51.103Z,38.46
2019-06-10T23:14:18.023Z,39.35
2019-06-10T23:16:44.232Z,39.66
2019-06-10T23:19:12.933Z,39.39
2019-06-10T23:21:38.470Z,39.85
2019-06-10T23:24:04.661Z,38.57
2019-06-10T23:26:33.004Z,40.85
2019-06-10T23:29:00.211Z,41.91
2019-06-10T23:31:26.605Z,42.52
2019-06-10T23:33:56.075Z,42.93
2019-06-10T23:36:23.351Z,41.56
2019-06-10T23:38:48.928Z,41.42
2019-06-10T23:41:15.087Z,41.19
2019-06-10T23:43:42.303Z,40.56
2019-06-10T23:46:08.668Z,39.66
2019-06-10T23:48:34.845Z,39.38
2019-06-10T23:51:03.464Z,39.09
2019-06-10T23:53:29.441Z,39.56
2019-06-10T23:55:56.191Z,40.89
2019-06-10T23:58:24.953Z,41.23
